Time;durP1;ratioP1;P1;durP2;ratioP2;P2;SDS_P1;SDS_P2;PMS_P1;PMS_P2;Temp;Humidity;BMP_temperature;BMP_pressure;BME280_temperature;BME280_humidity;BME280_pressure;Samples;Min_cycle;Max_cycle;Signal;HPM_P1;HPM_P2
2022/02/24 00:00:42;;;;;;;19.13;3.03;;;8.90;99.90;;;;;;5118760;23;20495;-93
2022/02/24 00:02:44;;;;;;;13.40;2.97;;;9.00;99.90;;;;;;5118804;23;20159;-92
2022/02/24 00:04:45;;;;;;;14.60;3.10;;;9.10;99.90;;;;;;5143542;23;20171;-94
2022/02/24 00:06:46;;;;;;;13.73;2.58;;;9.20;99.90;;;;;;5118840;23;20188;-92
2022/02/24 00:08:47;;;;;;;16.92;3.33;;;9.30;99.90;;;;;;5143523;23;20217;-92
2022/02/24 00:10:48;;;;;;;11.65;2.53;;;9.20;99.90;;;;;;5143521;23;20226;-94
2022/02/24 00:12:48;;;;;;;21.60;3.55;;;9.20;99.90;;;;;;5143855;23;20159;-93
2022/02/24 00:14:50;;;;;;;18.95;3.05;;;9.20;99.90;;;;;;5118350;23;20212;-91
2022/02/24 00:16:51;;;;;;;20.73;3.17;;;9.10;99.90;;;;;;5143438;23;20152;-91
2022/02/24 00:18:51;;;;;;;12.30;2.93;;;9.00;99.90;;;;;;5143723;23;20286;-96
2022/02/24 00:20:52;;;;;;;15.20;3.13;;;8.90;99.90;;;;;;5143818;23;20230;-95
2022/02/24 00:22:53;;;;;;;18.87;3.10;;;8.90;99.90;;;;;;5118865;23;20215;-94
2022/02/24 00:24:54;;;;;;;13.30;3.17;;;9.00;99.90;;;;;;5143552;23;20171;-95
2022/02/24 00:26:55;;;;;;;17.80;2.80;;;9.00;99.90;;;;;;5118381;23;20196;-94
2022/02/24 00:28:56;;;;;;;16.83;3.83;;;8.90;99.90;;;;;;5118515;23;20200;-91
2022/02/24 00:30:57;;;;;;;13.90;3.28;;;9.00;99.90;;;;;;5143281;23;20236;-94
2022/02/24 00:32:58;;;;;;;17.45;3.53;;;9.20;99.90;;;;;;5164740;22;20547;-91
2022/02/24 00:34:58;;;;;;;19.13;3.63;;;9.20;99.90;;;;;;5193658;22;20776;-90
2022/02/24 00:37:01;;;;;;;14.35;3.60;;;8.90;99.90;;;;;;5143413;23;20207;-91
2022/02/24 00:39:02;;;;;;;16.83;2.92;;;9.10;99.90;;;;;;5193763;22;20188;-89
2022/02/24 00:41:04;;;;;;;12.73;3.38;;;9.00;99.90;;;;;;5168290;23;20150;-91
2022/02/24 00:43:07;;;;;;;18.02;3.55;;;9.10;99.90;;;;;;5143591;23;20239;-92
2022/02/24 00:45:08;;;;;;;16.70;3.50;;;9.10;99.90;;;;;;5168155;23;20167;-91
2022/02/24 00:47:09;;;;;;;13.60;3.40;;;9.00;99.90;;;;;;5193782;22;20185;-91
2022/02/24 00:49:10;;;;;;;19.10;3.45;;;9.00;99.90;;;;;;5168126;23;20154;-91
2022/02/24 00:51:10;;;;;;;21.92;3.65;;;9.00;99.90;;;;;;5167991;23;20609;-93
2022/02/24 00:53:11;;;;;;;21.57;3.60;;;9.00;99.90;;;;;;5167940;23;20171;-93
2022/02/24 00:55:12;;;;;;;19.33;3.70;;;9.10;99.90;;;;;;5193630;22;20174;-92
2022/02/24 00:57:12;;;;;;;17.65;3.92;;;9.10;99.90;;;;;;5143117;23;20494;-92
2022/02/24 00:59:13;;;;;;;18.10;3.90;;;9.10;99.90;;;;;;5193242;22;20160;-91
2022/02/24 01:01:14;;;;;;;17.70;4.00;;;9.10;99.90;;;;;;5168102;23;20177;-92
2022/02/24 01:03:15;;;;;;;17.97;3.93;;;8.90;99.90;;;;;;5143303;23;20162;-90
2022/02/24 01:05:15;;;;;;;13.82;3.17;;;8.80;99.90;;;;;;5168203;23;20250;-91
2022/02/24 01:07:16;;;;;;;21.33;3.38;;;8.70;99.90;;;;;;5143420;23;20531;-91
2022/02/24 01:09:17;;;;;;;19.23;3.92;;;8.70;99.90;;;;;;5143330;23;20207;-92
2022/02/24 01:11:18;;;;;;;16.60;3.28;;;8.80;99.90;;;;;;5143303;23;20167;-92
2022/02/24 01:13:20;;;;;;;19.52;3.80;;;8.90;99.90;;;;;;5167995;23;20209;-91
2022/02/24 01:15:21;;;;;;;13.10;3.23;;;8.90;99.90;;;;;;5142943;23;20179;-92
2022/02/24 01:17:22;;;;;;;19.95;3.25;;;9.10;99.90;;;;;;5193869;22;20157;-90
2022/02/24 01:19:22;;;;;;;15.48;3.20;;;9.00;99.90;;;;;;5143071;23;20151;-90
2022/02/24 01:21:23;;;;;;;20.27;3.10;;;8.90;99.90;;;;;;5168556;23;20154;-92
2022/02/24 01:23:24;;;;;;;17.00;3.17;;;8.80;99.90;;;;;;5143205;23;20620;-91
2022/02/24 01:25:25;;;;;;;15.83;2.90;;;8.80;99.90;;;;;;5193474;22;20173;-92
2022/02/24 01:27:26;;;;;;;20.33;3.50;;;8.80;99.90;;;;;;5167937;23;20186;-91
2022/02/24 01:29:26;;;;;;;17.77;3.38;;;8.70;99.90;;;;;;5168392;23;20599;-90
2022/02/24 01:31:28;;;;;;;19.33;3.43;;;8.90;99.90;;;;;;5143167;23;20156;-90
2022/02/24 01:33:29;;;;;;;18.35;3.50;;;9.00;99.90;;;;;;5193643;22;20249;-90
2022/02/24 01:35:30;;;;;;;14.43;3.33;;;8.90;99.90;;;;;;5193536;22;20166;-91
2022/02/24 01:37:31;;;;;;;21.02;3.22;;;8.90;99.90;;;;;;5168193;22;20143;-91
2022/02/24 01:39:32;;;;;;;18.77;3.70;;;8.80;99.90;;;;;;5143004;23;20310;-92
2022/02/24 01:41:32;;;;;;;17.63;3.20;;;8.80;99.90;;;;;;5193559;22;20154;-91
2022/02/24 01:43:34;;;;;;;17.20;3.20;;;8.80;99.90;;;;;;5168632;23;20174;-90
2022/02/24 01:45:34;;;;;;;17.67;3.65;;;8.90;99.90;;;;;;5193371;22;20338;-91
2022/02/24 01:47:35;;;;;;;18.40;3.30;;;8.90;99.90;;;;;;5167861;23;20236;-91
2022/02/24 01:49:36;;;;;;;19.15;2.95;;;9.00;99.90;;;;;;5168187;23;20143;-90
2022/02/24 01:51:38;;;;;;;13.48;2.58;;;8.90;99.90;;;;;;5168184;23;20159;-93
2022/02/24 01:53:38;;;;;;;15.13;3.30;;;9.00;99.90;;;;;;5142912;23;20480;-92
2022/02/24 01:55:39;;;;;;;18.33;3.07;;;9.00;99.90;;;;;;5193221;22;20177;-91
2022/02/24 01:57:40;;;;;;;16.05;2.97;;;9.00;99.90;;;;;;5167961;23;20578;-91
2022/02/24 01:59:41;;;;;;;19.50;3.30;;;9.00;99.90;;;;;;5168127;23;20151;-91
2022/02/24 02:01:41;;;;;;;21.00;3.37;;;9.00;99.90;;;;;;5168160;23;20155;-89
2022/02/24 02:03:42;;;;;;;18.20;3.50;;;9.10;99.90;;;;;;5167984;23;20215;-91
2022/02/24 02:05:43;;;;;;;18.20;3.33;;;9.20;99.90;;;;;;5167880;23;20273;-90
2022/02/24 02:07:44;;;;;;;21.67;3.57;;;9.10;99.90;;;;;;5167893;23;20273;-91
2022/02/24 02:09:45;;;;;;;17.37;3.10;;;9.30;99.90;;;;;;5142926;23;20562;-93
2022/02/24 02:11:46;;;;;;;12.32;2.83;;;9.30;99.90;;;;;;5168389;23;20154;-91
2022/02/24 02:13:47;;;;;;;20.80;3.13;;;9.10;99.90;;;;;;5143057;23;20158;-91
2022/02/24 02:15:48;;;;;;;13.23;3.30;;;9.00;99.90;;;;;;5168020;23;20178;-92
2022/02/24 02:17:49;;;;;;;18.27;3.57;;;9.00;99.90;;;;;;5168280;23;20250;-90
2022/02/24 02:19:50;;;;;;;12.70;2.70;;;9.00;99.90;;;;;;5168115;23;20154;-91
2022/02/24 02:21:50;;;;;;;17.17;2.70;;;8.90;99.90;;;;;;5168128;23;20613;-90
2022/02/24 02:23:51;;;;;;;21.20;3.63;;;8.70;99.90;;;;;;5167984;23;20238;-90
2022/02/24 02:25:52;;;;;;;16.77;3.33;;;8.90;99.90;;;;;;5167851;23;20480;-91
2022/02/24 02:27:53;;;;;;;18.67;3.27;;;9.10;99.90;;;;;;5143897;23;20183;-91
2022/02/24 02:29:54;;;;;;;14.17;3.03;;;9.10;99.90;;;;;;5144450;23;20144;-90
2022/02/24 02:31:54;;;;;;;17.23;3.10;;;8.90;99.90;;;;;;5195214;22;20150;-91
2022/02/24 02:34:13;;;;;;;16.67;2.60;;;8.80;99.90;;;;;;5144144;23;20210;-91
2022/02/24 02:36:14;;;;;;;16.77;2.90;;;8.60;99.90;;;;;;5169420;23;20158;-92
2022/02/24 02:38:15;;;;;;;15.87;3.03;;;8.50;99.90;;;;;;5144295;23;20230;-90
2022/02/24 02:40:16;;;;;;;15.40;2.70;;;8.60;99.90;;;;;;5169429;23;20165;-93
2022/02/24 02:42:17;;;;;;;13.02;3.33;;;8.50;99.90;;;;;;5144447;23;20154;-91
2022/02/24 02:44:17;;;;;;;18.63;3.27;;;8.60;99.90;;;;;;5169249;23;20158;-90
2022/02/24 02:46:18;;;;;;;14.07;3.10;;;8.50;99.90;;;;;;5119330;23;20184;-91
2022/02/24 02:48:19;;;;;;;16.63;3.43;;;8.50;99.90;;;;;;5169454;23;20154;-91
2022/02/24 02:50:19;;;;;;;15.47;3.00;;;8.60;99.90;;;;;;5144060;23;20152;-92
2022/02/24 02:52:20;;;;;;;18.70;3.80;;;8.70;99.90;;;;;;5119559;23;20157;-91
2022/02/24 02:54:21;;;;;;;16.63;2.90;;;8.80;99.90;;;;;;5143812;23;20590;-91
2022/02/24 02:56:21;;;;;;;13.50;3.37;;;8.90;99.90;;;;;;5143959;23;20531;-91
2022/02/24 02:58:22;;;;;;;20.53;2.90;;;9.00;99.90;;;;;;5119330;23;20227;-92
2022/02/24 03:00:23;;;;;;;20.23;2.85;;;9.00;99.90;;;;;;5144219;23;20155;-93
2022/02/24 03:02:24;;;;;;;10.30;2.63;;;9.10;99.90;;;;;;5144467;23;20204;-91
2022/02/24 03:04:25;;;;;;;12.27;3.57;;;8.80;99.90;;;;;;5144095;23;20155;-90
2022/02/24 03:06:26;;;;;;;20.10;3.33;;;8.80;99.90;;;;;;5143841;23;20171;-91
2022/02/24 03:08:26;;;;;;;14.20;3.47;;;8.80;99.90;;;;;;5144202;23;20221;-91
2022/02/24 03:10:27;;;;;;;14.50;3.28;;;8.80;99.90;;;;;;5143962;23;20179;-91
2022/02/24 03:12:29;;;;;;;20.10;3.23;;;8.80;99.90;;;;;;5144132;23;20218;-92
2022/02/24 03:14:30;;;;;;;20.67;3.70;;;8.80;99.90;;;;;;5169017;23;20179;-91
2022/02/24 03:16:31;;;;;;;12.77;3.00;;;8.60;99.90;;;;;;5144206;23;20136;-90
2022/02/24 03:18:31;;;;;;;18.00;2.80;;;8.60;99.90;;;;;;5144548;23;20263;-92
2022/02/24 03:20:32;;;;;;;16.30;3.30;;;8.70;99.90;;;;;;5144299;23;20151;-92
2022/02/24 03:22:33;;;;;;;19.87;3.57;;;8.60;99.90;;;;;;5119562;23;20218;-91
2022/02/24 03:24:34;;;;;;;20.15;3.35;;;8.70;99.90;;;;;;5143918;23;20254;-90
2022/02/24 03:26:35;;;;;;;13.93;2.80;;;8.70;99.90;;;;;;5169280;23;20205;-91
2022/02/24 03:28:36;;;;;;;11.00;2.70;;;8.80;99.90;;;;;;5119025;23;20156;-92
2022/02/24 03:30:39;;;;;;;17.43;2.73;;;8.90;99.90;;;;;;5143988;23;20573;-91
2022/02/24 03:32:43;;;;;;;9.20;2.43;;;8.90;99.90;;;;;;5122679;23;20152;-91
2022/02/24 03:34:44;;;;;;;16.43;3.80;;;8.70;99.90;;;;;;5168994;23;20253;-91
2022/02/24 03:36:44;;;;;;;13.45;2.63;;;8.60;99.90;;;;;;5143710;23;20166;-91
2022/02/24 03:38:45;;;;;;;16.57;2.23;;;8.60;99.90;;;;;;5143415;23;20147;-92
2022/02/24 03:40:46;;;;;;;20.27;2.80;;;8.50;99.90;;;;;;5143687;23;20159;-91
2022/02/24 03:42:48;;;;;;;13.33;2.20;;;8.50;99.90;;;;;;5143880;23;20183;-91
2022/02/24 03:44:49;;;;;;;11.27;2.60;;;8.50;99.90;;;;;;5194032;22;20170;-91
2022/02/24 03:46:52;;;;;;;24.10;2.57;;;8.40;99.90;;;;;;5143867;23;20226;-91
2022/02/24 03:48:52;;;;;;;16.60;2.80;;;8.40;99.90;;;;;;5143728;23;20148;-90
2022/02/24 03:50:53;;;;;;;17.17;3.10;;;8.40;99.90;;;;;;5168452;23;20155;-91
2022/02/24 03:52:54;;;;;;;17.23;3.10;;;8.40;99.90;;;;;;5168877;22;20147;-90
2022/02/24 03:54:55;;;;;;;13.13;2.60;;;8.40;99.90;;;;;;5168811;23;20190;-90
2022/02/24 03:56:55;;;;;;;18.67;2.80;;;8.30;99.90;;;;;;5143683;23;20234;-90
2022/02/24 03:58:56;;;;;;;11.73;2.60;;;8.30;99.90;;;;;;5168963;23;20162;-91
2022/02/24 04:00:57;;;;;;;13.93;2.77;;;8.30;99.90;;;;;;5168411;22;20233;-91
2022/02/24 04:02:57;;;;;;;15.53;3.63;;;8.40;99.90;;;;;;5168545;23;20182;-88
2022/02/24 04:05:00;;;;;;;17.03;2.93;;;8.40;99.90;;;;;;5168534;22;20250;-91
2022/02/24 04:07:01;;;;;;;16.57;3.13;;;8.40;99.90;;;;;;5168518;23;20253;-92
2022/02/24 04:09:02;;;;;;;12.10;2.40;;;8.30;99.90;;;;;;5194441;22;20155;-91
2022/02/24 04:11:03;;;;;;;18.20;2.80;;;8.20;99.90;;;;;;5168921;23;20150;-91
2022/02/24 04:13:03;;;;;;;15.63;2.73;;;8.20;99.90;;;;;;5143760;23;20166;-91
2022/02/24 04:15:05;;;;;;;17.33;2.53;;;8.20;99.90;;;;;;5193972;22;20166;-91
2022/02/24 04:17:05;;;;;;;21.83;3.00;;;8.30;99.90;;;;;;5143666;23;20156;-91
2022/02/24 04:19:06;;;;;;;11.37;2.53;;;8.30;99.90;;;;;;5194242;22;20174;-91
2022/02/24 04:21:07;;;;;;;13.93;2.90;;;8.50;99.90;;;;;;5143667;23;20229;-90
2022/02/24 04:23:08;;;;;;;18.67;3.07;;;8.40;99.90;;;;;;5143594;23;20148;-90
2022/02/24 04:25:09;;;;;;;9.50;1.97;;;8.40;99.90;;;;;;5168438;23;20174;-90
2022/02/24 04:27:10;;;;;;;19.53;3.00;;;8.30;99.90;;;;;;5168373;23;20187;-92
2022/02/24 04:29:12;;;;;;;16.10;2.67;;;8.30;99.90;;;;;;5193863;22;20153;-92
2022/02/24 04:31:13;;;;;;;17.73;2.67;;;8.30;99.90;;;;;;5143382;23;20155;-91
2022/02/24 04:33:14;;;;;;;14.33;2.40;;;8.20;99.90;;;;;;5157609;23;20159;-91
2022/02/24 04:35:15;;;;;;;13.33;3.33;;;8.20;99.90;;;;;;5118383;23;20176;-93
2022/02/24 04:37:15;;;;;;;15.37;2.17;;;8.00;99.90;;;;;;5118678;23;20155;-91
2022/02/24 04:39:16;;;;;;;11.40;2.27;;;8.00;99.90;;;;;;5143098;23;20183;-90
2022/02/24 04:41:17;;;;;;;13.63;2.27;;;8.00;99.90;;;;;;5118744;23;20148;-93
2022/02/24 04:43:17;;;;;;;21.33;2.53;;;8.00;99.90;;;;;;5168520;23;20152;-91
2022/02/24 04:45:18;;;;;;;19.50;2.50;;;8.10;99.90;;;;;;5143359;23;20176;-90
2022/02/24 04:47:19;;;;;;;18.07;2.27;;;8.00;99.90;;;;;;5143299;23;20553;-91
2022/02/24 04:49:19;;;;;;;10.17;2.30;;;7.90;99.90;;;;;;5142841;23;20163;-91
2022/02/24 04:51:20;;;;;;;17.67;2.80;;;7.80;99.90;;;;;;5143343;23;20148;-91
2022/02/24 04:53:21;;;;;;;13.07;2.53;;;7.90;99.90;;;;;;5143101;23;20186;-91
2022/02/24 04:55:21;;;;;;;13.23;2.30;;;7.90;99.90;;;;;;5143051;23;20262;-90
2022/02/24 04:57:22;;;;;;;13.30;1.97;;;7.90;99.90;;;;;;5143211;23;20162;-91
2022/02/24 04:59:23;;;;;;;11.10;2.00;;;7.90;99.90;;;;;;5143382;23;20205;-91
2022/02/24 05:01:24;;;;;;;7.57;2.10;;;7.90;99.90;;;;;;5143049;23;20151;-92
2022/02/24 05:03:24;;;;;;;17.83;2.50;;;7.90;99.90;;;;;;5118139;23;20152;-90
2022/02/24 05:05:25;;;;;;;14.47;1.80;;;7.90;99.90;;;;;;5142951;23;20167;-92
2022/02/24 05:07:26;;;;;;;8.33;1.63;;;7.70;99.90;;;;;;5118134;23;20188;-91
2022/02/24 05:09:27;;;;;;;13.67;1.80;;;7.80;99.90;;;;;;5168324;23;20154;-90
2022/02/24 05:11:27;;;;;;;10.23;1.50;;;7.80;99.90;;;;;;5118440;23;20149;-93
2022/02/24 05:13:28;;;;;;;11.30;2.17;;;7.70;99.90;;;;;;5143129;23;20156;-91
2022/02/24 05:15:29;;;;;;;15.27;2.07;;;7.80;99.90;;;;;;5142731;23;20171;-90
2022/02/24 05:17:30;;;;;;;9.67;1.50;;;7.80;99.90;;;;;;5142834;23;20158;-90
2022/02/24 05:19:30;;;;;;;12.47;2.40;;;7.80;99.90;;;;;;5118364;23;20152;-90
2022/02/24 05:21:31;;;;;;;12.93;2.10;;;7.90;99.90;;;;;;5143459;23;20162;-90
2022/02/24 05:23:32;;;;;;;7.83;1.60;;;7.90;99.90;;;;;;5118415;23;20506;-89
2022/02/24 05:25:37;;;;;;;8.37;2.00;;;7.70;99.90;;;;;;5118386;23;20190;-90
2022/02/24 05:27:38;;;;;;;10.53;1.90;;;7.60;99.90;;;;;;5143022;23;20191;-91
2022/02/24 05:29:39;;;;;;;12.83;1.90;;;7.60;99.90;;;;;;5142987;23;20227;-91
2022/02/24 05:31:40;;;;;;;13.27;2.13;;;7.60;99.90;;;;;;5143215;23;20174;-91
2022/02/24 05:33:40;;;;;;;12.33;1.83;;;7.60;99.90;;;;;;5159283;23;20217;-91
2022/02/24 05:35:41;;;;;;;16.73;1.93;;;7.60;99.90;;;;;;5143109;23;20206;-92
2022/02/24 05:37:42;;;;;;;13.07;2.30;;;7.50;99.90;;;;;;5143239;23;20198;-90
2022/02/24 05:39:43;;;;;;;14.90;2.30;;;7.40;99.90;;;;;;5142980;23;20467;-91
2022/02/24 05:41:44;;;;;;;10.77;2.03;;;7.20;99.90;;;;;;5118204;23;20153;-91
2022/02/24 05:43:46;;;;;;;18.10;2.10;;;7.40;99.90;;;;;;5167964;23;20153;-90
2022/02/24 05:45:47;;;;;;;13.47;1.80;;;7.50;99.90;;;;;;5168025;23;20174;-90
2022/02/24 05:47:47;;;;;;;12.17;2.07;;;7.50;99.90;;;;;;5142918;23;20218;-91
2022/02/24 05:49:48;;;;;;;13.80;2.07;;;7.60;99.90;;;;;;5143052;23;20219;-92
2022/02/24 05:51:49;;;;;;;13.03;2.03;;;7.60;99.90;;;;;;5143224;23;20211;-90
2022/02/24 05:53:50;;;;;;;11.00;1.87;;;7.50;99.90;;;;;;5143153;23;20152;-91
2022/02/24 05:55:51;;;;;;;12.07;2.17;;;7.50;99.90;;;;;;5143008;23;20164;-91
2022/02/24 05:57:51;;;;;;;15.77;2.40;;;7.40;99.90;;;;;;5118121;23;20176;-92
2022/02/24 05:59:52;;;;;;;11.50;1.77;;;7.40;99.90;;;;;;5142976;23;20490;-91
2022/02/24 06:01:53;;;;;;;13.07;2.13;;;7.40;99.90;;;;;;5119210;23;20171;-92
2022/02/24 06:03:54;;;;;;;16.07;2.10;;;7.40;99.90;;;;;;5119662;23;20144;-91
2022/02/24 06:05:56;;;;;;;11.13;1.83;;;7.20;99.90;;;;;;5144564;23;20171;-91
2022/02/24 06:07:56;;;;;;;11.40;2.03;;;7.50;99.90;;;;;;5144785;23;20625;-92
2022/02/24 06:09:57;;;;;;;18.77;2.33;;;7.30;99.90;;;;;;5144206;23;20151;-92
2022/02/24 06:11:58;;;;;;;12.93;1.90;;;7.40;99.90;;;;;;5144702;23;20159;-91
2022/02/24 06:13:59;;;;;;;18.13;2.00;;;7.40;99.90;;;;;;5119433;23;20167;-91
2022/02/24 06:16:00;;;;;;;14.27;1.93;;;7.30;99.90;;;;;;5169094;23;20178;-91
2022/02/24 06:18:10;;;;;;;18.63;2.23;;;7.40;99.90;;;;;;5144380;23;20234;-92
2022/02/24 06:20:11;;;;;;;16.57;3.00;;;7.50;99.90;;;;;;5144616;23;20233;-93
2022/02/24 06:22:12;;;;;;;16.90;2.83;;;7.40;99.90;;;;;;5144453;23;20159;-91
2022/02/24 06:24:13;;;;;;;10.93;2.10;;;7.50;99.90;;;;;;5144420;23;20197;-91
2022/02/24 06:26:14;;;;;;;12.37;2.53;;;7.30;99.90;;;;;;5119591;23;20152;-91
2022/02/24 06:28:15;;;;;;;21.90;2.93;;;7.30;99.90;;;;;;5144448;23;20162;-92
2022/02/24 06:30:16;;;;;;;12.20;2.33;;;7.40;99.90;;;;;;5144868;23;20151;-91
2022/02/24 06:32:17;;;;;;;9.13;1.80;;;7.50;99.90;;;;;;5120319;23;20159;-91
2022/02/24 06:34:17;;;;;;;15.93;2.23;;;7.40;99.90;;;;;;5143430;23;20218;-91
2022/02/24 06:36:18;;;;;;;10.03;2.47;;;7.40;99.90;;;;;;5169525;23;20181;-90
2022/02/24 06:38:19;;;;;;;12.37;2.57;;;7.40;99.90;;;;;;5169403;22;20143;-92
2022/02/24 06:40:19;;;;;;;17.17;2.27;;;7.40;99.90;;;;;;5144347;23;20246;-92
2022/02/24 06:42:20;;;;;;;15.70;2.47;;;7.40;99.90;;;;;;5169170;22;20189;-91
2022/02/24 06:44:21;;;;;;;12.73;2.57;;;7.40;99.90;;;;;;5169335;23;20147;-92
2022/02/24 06:46:23;;;;;;;17.10;2.50;;;7.40;99.90;;;;;;5144185;23;20154;-91
2022/02/24 06:48:25;;;;;;;16.97;2.07;;;7.50;99.90;;;;;;5169755;23;20159;-90
2022/02/24 06:50:26;;;;;;;12.47;2.13;;;7.40;99.90;;;;;;5144367;23;20158;-92
2022/02/24 06:52:26;;;;;;;16.87;2.40;;;7.30;99.90;;;;;;5169376;23;20146;-90
2022/02/24 06:54:27;;;;;;;14.97;2.43;;;7.30;99.90;;;;;;5169346;23;20158;-91
2022/02/24 06:56:28;;;;;;;17.30;3.50;;;7.40;99.90;;;;;;5144174;23;20171;-93
2022/02/24 06:58:29;;;;;;;17.40;2.87;;;7.30;99.90;;;;;;5169285;23;20150;-90
2022/02/24 07:00:29;;;;;;;16.20;2.30;;;7.40;99.90;;;;;;5143928;23;20174;-91
2022/02/24 07:02:30;;;;;;;19.10;2.53;;;7.30;99.90;;;;;;5168859;23;20607;-92
2022/02/24 07:04:32;;;;;;;17.73;2.27;;;7.30;99.90;;;;;;5169107;23;20246;-91
2022/02/24 07:06:33;;;;;;;11.87;2.10;;;7.50;99.90;;;;;;5169338;23;20167;-93
2022/02/24 07:08:34;;;;;;;15.83;2.43;;;7.40;99.90;;;;;;5169456;22;20158;-92
2022/02/24 07:10:35;;;;;;;20.03;2.80;;;7.40;99.90;;;;;;5169188;23;20151;-90
2022/02/24 07:12:36;;;;;;;23.13;3.30;;;7.40;99.90;;;;;;5168678;23;20154;-92
2022/02/24 07:14:37;;;;;;;15.70;2.53;;;7.40;99.90;;;;;;5169084;23;20171;-92
2022/02/24 07:16:38;;;;;;;12.77;2.50;;;7.50;99.90;;;;;;5144145;23;20227;-91
2022/02/24 07:18:38;;;;;;;16.40;3.20;;;7.60;99.90;;;;;;5144155;23;20162;-90
2022/02/24 07:20:39;;;;;;;13.73;2.50;;;7.60;99.90;;;;;;5169423;23;20543;-91
2022/02/24 07:22:40;;;;;;;13.67;2.67;;;7.80;99.90;;;;;;5194563;22;20154;-91
2022/02/24 07:24:41;;;;;;;22.07;2.53;;;7.60;99.90;;;;;;5143878;23;20176;-91
2022/02/24 07:26:41;;;;;;;16.40;2.40;;;7.60;99.90;;;;;;5168654;23;20489;-90
2022/02/24 07:28:43;;;;;;;35.57;12.67;;;7.80;99.90;;;;;;5143896;23;20159;-91
2022/02/24 07:30:44;;;;;;;18.23;3.20;;;7.70;99.90;;;;;;5169207;23;20193;-89
2022/02/24 07:32:44;;;;;;;15.03;2.50;;;7.70;99.90;;;;;;5194336;22;20154;-91
2022/02/24 07:34:45;;;;;;;15.67;2.43;;;7.70;99.90;;;;;;5168855;23;20274;-90
2022/02/24 07:36:46;;;;;;;14.40;2.50;;;7.70;99.90;;;;;;5169199;23;20201;-89
2022/02/24 07:38:47;;;;;;;16.03;2.20;;;7.80;99.90;;;;;;5169104;23;20182;-89
2022/02/24 07:40:47;;;;;;;12.47;2.17;;;7.70;99.90;;;;;;5168987;23;20145;-89
2022/02/24 07:42:49;;;;;;;15.10;2.07;;;7.90;99.90;;;;;;5143790;23;20155;-91
2022/02/24 07:44:50;;;;;;;17.90;2.33;;;7.80;99.90;;;;;;5168945;23;20201;-89
2022/02/24 07:46:51;;;;;;;15.30;2.50;;;7.80;99.90;;;;;;5169061;23;20195;-90
2022/02/24 07:48:52;;;;;;;9.43;2.00;;;7.90;99.90;;;;;;5169294;22;20139;-89
2022/02/24 07:50:54;;;;;;;10.20;1.90;;;7.90;99.90;;;;;;5168917;23;20159;-90
2022/02/24 07:52:55;;;;;;;16.77;2.17;;;7.80;99.90;;;;;;5143892;23;20152;-90
2022/02/24 07:54:55;;;;;;;17.57;2.30;;;7.90;99.90;;;;;;5168684;23;20210;-91
2022/02/24 07:56:56;;;;;;;15.23;2.50;;;8.00;99.90;;;;;;5168505;22;20224;-90
2022/02/24 07:58:57;;;;;;;15.33;2.43;;;7.90;99.90;;;;;;5168792;23;20158;-91
2022/02/24 08:00:58;;;;;;;7.87;1.23;;;7.80;99.90;;;;;;5168511;23;20605;-91
2022/02/24 08:02:59;;;;;;;19.93;2.40;;;7.80;99.90;;;;;;5168677;23;20158;-91
2022/02/24 08:05:00;;;;;;;13.33;2.27;;;8.00;99.90;;;;;;5168594;23;20167;-91
2022/02/24 08:07:01;;;;;;;12.37;2.23;;;8.00;99.90;;;;;;5143468;23;20586;-90
2022/02/24 08:09:03;;;;;;;20.07;2.87;;;8.10;99.90;;;;;;5168612;23;20146;-90
2022/02/24 08:11:04;;;;;;;13.07;2.13;;;8.10;99.90;;;;;;5168402;23;20608;-88
2022/02/24 08:13:05;;;;;;;22.33;2.53;;;8.00;99.90;;;;;;5168494;23;20147;-89
2022/02/24 08:15:18;;;;;;;14.83;2.33;;;8.10;99.90;;;;;;5168357;23;20205;-90
2022/02/24 08:17:20;;;;;;;20.50;2.90;;;8.20;99.90;;;;;;5168618;23;20170;-93
2022/02/24 08:19:20;;;;;;;14.27;2.30;;;8.40;99.90;;;;;;5143486;23;20156;-90
2022/02/24 08:21:22;;;;;;;15.23;2.47;;;8.20;99.90;;;;;;5193720;22;20159;-91
2022/02/24 08:23:23;;;;;;;13.20;1.83;;;8.20;99.90;;;;;;5168389;23;20151;-89
2022/02/24 08:25:24;;;;;;;9.60;1.93;;;8.20;99.90;;;;;;5168395;23;20178;-90
2022/02/24 08:27:24;;;;;;;15.20;2.33;;;8.20;99.90;;;;;;5143291;23;20266;-88
2022/02/24 08:29:25;;;;;;;16.70;2.50;;;8.30;99.90;;;;;;5193880;22;20192;-90
2022/02/24 08:31:26;;;;;;;16.67;2.07;;;8.30;99.90;;;;;;5143468;23;20151;-92
2022/02/24 08:33:27;;;;;;;10.10;1.40;;;8.30;99.90;;;;;;5193856;22;20237;-91
2022/02/24 08:35:28;;;;;;;15.57;2.37;;;8.10;99.90;;;;;;5193735;22;20202;-92
2022/02/24 08:37:29;;;;;;;14.70;2.10;;;8.20;99.90;;;;;;5168495;23;20651;-90
2022/02/24 08:39:29;;;;;;;19.90;2.20;;;8.30;99.90;;;;;;5168248;23;20155;-89
2022/02/24 08:41:31;;;;;;;18.10;2.30;;;8.30;99.90;;;;;;5143282;23;20155;-91
2022/02/24 08:43:32;;;;;;;15.03;2.87;;;8.50;99.90;;;;;;5193859;22;20153;-90
2022/02/24 08:45:34;;;;;;;21.03;2.30;;;8.50;99.90;;;;;;5168083;23;20178;-90
2022/02/24 08:47:35;;;;;;;16.73;2.27;;;8.60;99.90;;;;;;5143054;23;20266;-91
2022/02/24 08:49:36;;;;;;;11.83;2.07;;;8.60;99.90;;;;;;5168737;23;20222;-91
2022/02/24 08:51:36;;;;;;;14.40;2.60;;;8.60;99.90;;;;;;5168630;23;20155;-90
2022/02/24 08:53:37;;;;;;;9.77;2.03;;;8.60;99.90;;;;;;5168677;23;20540;-89
2022/02/24 08:55:38;;;;;;;12.70;2.10;;;8.60;99.90;;;;;;5168419;23;20253;-91
2022/02/24 08:57:39;;;;;;;15.37;2.07;;;8.40;99.90;;;;;;5143527;23;20227;-90
2022/02/24 08:59:40;;;;;;;15.27;2.53;;;8.40;99.90;;;;;;5168410;23;20151;-91
2022/02/24 09:01:41;;;;;;;13.23;2.13;;;8.30;99.90;;;;;;5168384;23;20246;-89
2022/02/24 09:03:41;;;;;;;16.70;2.07;;;8.40;99.90;;;;;;5143197;23;20170;-90
2022/02/24 09:05:44;;;;;;;14.73;2.30;;;8.40;99.90;;;;;;5168264;23;20166;-90
2022/02/24 09:07:44;;;;;;;20.00;2.07;;;8.40;99.90;;;;;;5143207;23;20270;-90
2022/02/24 09:09:45;;;;;;;13.20;2.53;;;8.50;99.90;;;;;;5193478;22;20482;-91
2022/02/24 09:11:46;;;;;;;16.87;2.13;;;8.60;99.90;;;;;;5168231;23;20159;-92
2022/02/24 09:13:47;;;;;;;13.97;2.20;;;8.60;99.90;;;;;;5168276;23;20186;-90
2022/02/24 09:15:47;;;;;;;11.67;2.13;;;8.70;99.90;;;;;;5142913;23;20183;-90
2022/02/24 09:17:48;;;;;;;16.60;1.90;;;8.70;99.90;;;;;;5142974;23;20143;-91
2022/02/24 09:19:50;;;;;;;18.60;2.37;;;8.80;99.90;;;;;;5193453;22;20204;-91
2022/02/24 09:21:51;;;;;;;14.87;2.57;;;8.80;99.90;;;;;;5193402;22;20237;-91
2022/02/24 09:23:52;;;;;;;17.93;2.90;;;8.80;99.90;;;;;;5168198;23;20185;-90
2022/02/24 09:25:53;;;;;;;16.53;1.93;;;8.70;99.90;;;;;;5167975;23;20170;-91
2022/02/24 09:27:54;;;;;;;12.43;2.13;;;8.80;99.90;;;;;;5142909;23;20281;-90
2022/02/24 09:29:55;;;;;;;11.03;1.83;;;8.70;99.90;;;;;;5142550;23;20487;-90
2022/02/24 09:31:56;;;;;;;13.43;2.07;;;8.60;99.90;;;;;;5168135;23;20197;-90
2022/02/24 09:33:57;;;;;;;13.43;2.30;;;8.30;99.90;;;;;;5142949;23;20159;-90
2022/02/24 09:35:57;;;;;;;15.33;2.33;;;8.30;99.90;;;;;;5169113;23;20185;-90
2022/02/24 09:37:58;;;;;;;12.10;2.43;;;8.40;99.90;;;;;;5146091;23;20166;-92
2022/02/24 09:39:59;;;;;;;11.07;2.43;;;8.60;99.90;;;;;;5145518;23;20198;-90
2022/02/24 09:42:00;;;;;;;10.83;2.57;;;8.90;99.90;;;;;;5145759;23;20155;-92
2022/02/24 09:44:01;;;;;;;11.00;2.03;;;9.10;99.90;;;;;;5120756;23;20160;-91
2022/02/24 09:46:05;;;;;;;16.47;2.43;;;9.50;99.90;;;;;;5120681;23;20207;-91
2022/02/24 09:48:08;;;;;;;7.78;1.90;;;9.70;99.90;;;;;;5120861;23;20192;-89
2022/02/24 09:50:10;;;;;;;12.27;2.58;;;9.80;99.90;;;;;;5145897;23;20159;-90
2022/02/24 09:52:10;;;;;;;13.70;1.73;;;10.20;99.90;;;;;;5145909;23;20155;-93
2022/02/24 09:54:12;;;;;;;10.77;2.03;;;10.40;99.90;;;;;;5145786;23;20274;-91
2022/02/24 09:56:18;;;;;;;14.10;2.03;;;10.70;99.90;;;;;;5145580;23;20187;-90
2022/02/24 09:58:21;;;;;;;11.20;1.77;;;11.00;99.90;;;;;;5145653;23;20159;-91
2022/02/24 10:00:22;;;;;;;14.38;2.20;;;10.90;99.90;;;;;;5145980;23;20569;-91
2022/02/24 10:02:27;;;;;;;7.30;1.58;;;10.60;99.90;;;;;;5145872;23;20151;-92
2022/02/24 10:04:29;;;;;;;9.90;2.10;;;10.30;99.90;;;;;;5120954;23;20187;-91
2022/02/24 10:06:42;;;;;;;5.90;1.90;;;10.10;99.90;;;;;;5145695;23;20152;-92
2022/02/24 10:08:47;;;;;;;8.82;1.85;;;10.00;99.90;;;;;;5145673;23;20238;-91
2022/02/24 10:10:47;;;;;;;17.50;2.22;;;10.00;99.90;;;;;;5145424;23;20166;-91
2022/02/24 10:13:09;;;;;;;12.88;2.15;;;10.10;99.90;;;;;;5145649;23;20183;-92
2022/02/24 10:15:13;;;;;;;16.20;1.92;;;10.10;99.90;;;;;;5120596;23;20191;-90
2022/02/24 10:17:17;;;;;;;13.63;2.13;;;10.20;99.90;;;;;;5145781;23;20162;-92
2022/02/24 10:19:26;;;;;;;11.82;1.85;;;10.10;99.90;;;;;;5120672;23;20148;-91
2022/02/24 10:21:27;;;;;;;11.63;1.77;;;10.10;99.90;;;;;;5170848;23;20158;-91
2022/02/24 10:23:40;;;;;;;8.25;2.08;;;10.20;99.90;;;;;;5145831;23;20143;-91
2022/02/24 10:25:52;;;;;;;16.05;2.50;;;10.20;99.90;;;;;;5120253;23;20172;-92
2022/02/24 10:27:53;;;;;;;11.52;2.03;;;10.10;99.90;;;;;;5145447;23;20194;-93
2022/02/24 10:30:13;;;;;;;12.98;2.10;;;10.20;99.90;;;;;;5145293;23;20148;-93